Asheboro, NC

3:17 PM EST on March 04, 2015 (GMT -0500)
KNCASHEB5 | Change Station
CLOSE
Current Station
Personal Weather Station
Location: Asheboro, NC
Elevation: 780 ft
Nearby Weather Stations

Elev 780 ft 35.63 °N, 79.76 °W | Updated 12 minutes ago

Partly Cloudy
Partly Cloudy
70.7 °F
Feels Like 74 °F
N
9.0
Wind Variable Wind from SSW

Today
High -- | Low -- °F
--% Chance of Precip.
Yesterday
High -- | Low -- °F
Precip. -- in
6:45 AM 6:17 PM
Waxing Gibbous, 99% visible
Pressure 29.92 in
Visibility 10.0 miles
Clouds Clear
Heat Index 74 °F
Dew Point 60 °F
Humidity 69%
Rainfall 0.05 in
Snow Depth Not available.
UV 3.1 out of 12
Pollen 7.90 out of 12
Air Quality Not available.
Flu Activity Not available.
METAR KHBI 041955Z AUTO 20023G34KT 10SM CLR 21/14 A2992 RMK AO2 T02050142

More Conditions Fewer Conditions

Pressure 29.92 in
Visibility 10.0 miles
Clouds Clear
Heat Index 74 °F
Dew Point 60 °F
Humidity 69%
Rainfall 0.05 in
Snow Depth Not available.
UV 3.1 out of 12
Pollen 7.90 out of 12
Air Quality Not available.
Flu Activity Not available.
METAR KHBI 041955Z AUTO 20023G34KT 10SM CLR 21/14 A2992 RMK AO2 T02050142

More Conditions Fewer Conditions

10-Day Weather Forecast

Almanac

Astronomy

Mar. 04, 2015 Rise Set
Actual Time
Civil Twilight
Nautical Twilight
Astronomical Twilight
Moon
Length of Visible Light
Length of Day
Tomorrow will be .
, % of the Moon is Illuminated

Today's Extremes

State Highs State Lows

Community

WunderPhotos

Upload Photos

1,802,567 photos uploaded!

WunderBlogs® & News

Nearby

Air Quality

  Air Quality AQ Index Pollutant
Not available.

Snow Depth

Station Depth Elevation

Earthquake Activity

City Distance Mag. Time & Date
Minimum magnitude displayed is 2.5.

Coastal Water Temperatures

Place Temperature

Nearby Weather Stations